Time;durP1;ratioP1;P1;durP2;ratioP2;P2;SDS_P1;SDS_P2;PMS_P1;PMS_P2;Temp;Humidity;BMP_temperature;BMP_pressure;BME280_temperature;BME280_humidity;BME280_pressure;Samples;Min_cycle;Max_cycle;Signal;HPM_P1;HPM_P2
2021/01/30 00:01:05;;;;;;;13.27;10.60;;;;;;;2.06;69.10;99702.25;5117344;28;20809;-74
2021/01/30 00:03:31;;;;;;;14.47;10.93;;;;;;;1.79;70.59;99705.84;5107309;28;20180;-73
2021/01/30 00:05:56;;;;;;;13.77;10.50;;;;;;;1.51;70.14;99705.03;5103206;28;20250;-73
2021/01/30 00:08:21;;;;;;;13.73;9.90;;;;;;;1.90;70.88;99707.00;5096844;28;20226;-73
2021/01/30 00:10:47;;;;;;;15.10;10.40;;;;;;;1.85;70.06;99708.56;5098465;28;20259;-73
2021/01/30 00:13:14;;;;;;;12.60;11.07;;;;;;;1.52;71.51;99706.78;5098562;28;20217;-73
2021/01/30 00:15:39;;;;;;;15.17;10.60;;;;;;;1.57;70.55;99720.63;5101243;28;20212;-72
2021/01/30 00:18:06;;;;;;;7.20;5.60;;;;;;;8.37;77.94;99684.66;5110005;28;20429;-63
2021/01/30 00:20:34;;;;;;;13.00;11.03;;;;;;;6.54;58.78;99687.16;5106271;28;20441;-72
2021/01/30 00:23:01;;;;;;;12.70;9.93;;;;;;;4.49;62.15;99700.78;5101417;28;20478;-72
2021/01/30 00:25:30;;;;;;;14.67;10.93;;;;;;;3.30;65.16;99716.47;5101641;28;20846;-72
2021/01/30 00:27:56;;;;;;;12.30;9.47;;;;;;;3.28;65.16;99713.00;5101010;28;20454;-71
2021/01/30 00:30:24;;;;;;;12.60;9.80;;;;;;;3.02;65.98;99718.44;5100760;28;20438;-71
2021/01/30 00:32:50;;;;;;;13.90;10.63;;;;;;;2.64;68.65;99732.09;5101377;28;20402;-74
2021/01/30 00:35:18;;;;;;;14.23;10.73;;;;;;;2.77;68.58;99734.97;5114709;28;20472;-76
2021/01/30 00:37:43;;;;;;;14.40;10.70;;;;;;;3.18;66.60;99724.78;5121518;27;20822;-74
2021/01/30 00:40:09;;;;;;;13.73;11.53;;;;;;;2.92;67.59;99722.47;5122007;28;20431;-74
2021/01/30 00:42:35;;;;;;;12.93;11.37;;;;;;;2.41;69.97;99726.38;5121506;28;20210;-73
2021/01/30 00:45:02;;;;;;;13.90;12.17;;;;;;;2.47;69.83;99729.09;5121628;28;20669;-73
2021/01/30 00:47:27;;;;;;;15.03;10.97;;;;;;;2.42;69.27;99730.69;5121658;28;20248;-75
2021/01/30 00:49:53;;;;;;;13.90;10.97;;;;;;;2.92;69.51;99727.63;5120900;28;20417;-72
2021/01/30 00:52:24;;;;;;;15.80;11.90;;;;;;;2.20;70.12;99744.66;5120418;28;20564;-74
2021/01/30 00:54:50;;;;;;;14.93;11.83;;;;;;;1.86;71.42;99751.44;5120892;28;20163;-74
2021/01/30 00:57:15;;;;;;;16.30;12.80;;;;;;;2.43;71.39;99741.84;5120804;28;20401;-75
2021/01/30 00:59:41;;;;;;;16.10;12.10;;;;;;;2.36;71.04;99741.66;5120742;28;20410;-72
2021/01/30 01:02:07;;;;;;;16.97;12.20;;;;;;;2.13;71.36;99742.75;5121126;28;20223;-73
2021/01/30 01:04:32;;;;;;;18.20;12.90;;;;;;;2.28;70.68;99752.59;5119985;28;20250;-74
2021/01/30 01:06:57;;;;;;;16.67;12.53;;;;;;;1.82;72.71;99760.75;5120638;28;20189;-72
2021/01/30 01:09:23;;;;;;;14.70;11.43;;;;;;;2.31;71.00;99765.53;5120967;28;20207;-73
2021/01/30 01:11:50;;;;;;;16.97;12.83;;;;;;;2.33;71.01;99766.47;5120545;28;20220;-73
2021/01/30 01:14:18;;;;;;;16.87;12.53;;;;;;;2.11;71.60;99764.97;5119688;28;20218;-72
2021/01/30 01:16:43;;;;;;;15.20;11.90;;;;;;;2.09;71.70;99762.38;5120823;27;20422;-71
2021/01/30 01:19:09;;;;;;;17.60;11.93;;;;;;;2.52;71.04;99765.25;5120654;28;20416;-73
2021/01/30 01:21:34;;;;;;;17.50;12.23;;;;;;;2.74;70.31;99765.78;5120228;28;20179;-73
2021/01/30 01:23:59;;;;;;;16.83;12.27;;;;;;;1.81;72.40;99773.56;5120685;28;20187;-79
2021/01/30 01:26:25;;;;;;;16.70;13.20;;;;;;;2.29;71.91;99782.63;5119348;27;20191;-79
2021/01/30 01:28:50;;;;;;;16.70;12.83;;;;;;;2.51;71.28;99776.34;5119599;28;20286;-77
2021/01/30 01:31:18;;;;;;;17.43;13.07;;;;;;;2.38;71.23;99780.28;5120557;28;20168;-77
2021/01/30 01:33:43;;;;;;;18.93;13.97;;;;;;;1.77;73.11;99788.03;5120145;27;20167;-77
2021/01/30 01:36:11;;;;;;;16.27;12.30;;;;;;;1.61;74.43;99794.41;5120199;28;20443;-72
2021/01/30 01:38:37;;;;;;;18.30;13.67;;;;;;;1.79;74.30;99794.06;5120493;28;20160;-76
2021/01/30 01:41:02;;;;;;;18.03;13.80;;;;;;;1.86;73.89;99800.25;5119931;28;20409;-76
2021/01/30 01:43:28;;;;;;;19.87;13.87;;;;;;;1.87;73.86;99802.00;5120037;28;20175;-74
2021/01/30 01:46:13;;;;;;;19.70;14.50;;;;;;;1.70;74.58;99804.06;5120371;28;20167;-75
2021/01/30 01:48:42;;;;;;;21.20;14.23;;;;;;;1.83;74.53;99805.31;5119061;28;20457;-75
2021/01/30 01:51:11;;;;;;;17.53;12.90;;;;;;;2.52;73.33;99808.97;5119752;28;20475;-74
2021/01/30 01:53:40;;;;;;;17.03;12.10;;;;;;;1.65;74.29;99816.78;5118875;28;20414;-73
2021/01/30 01:56:16;;;;;;;15.70;12.30;;;;;;;1.60;75.08;99820.91;5119016;28;20882;-77
2021/01/30 01:58:43;;;;;;;18.90;14.23;;;;;;;1.74;74.79;99825.59;5119573;28;20683;-75
2021/01/30 02:01:10;;;;;;;18.53;13.67;;;;;;;1.82;74.70;99825.00;5119493;28;20496;-74
2021/01/30 02:03:36;;;;;;;20.40;13.73;;;;;;;2.26;74.67;99826.25;5119308;28;20431;-73
2021/01/30 02:06:02;;;;;;;18.67;12.93;;;;;;;2.32;71.84;99831.56;5118924;28;20417;-76
2021/01/30 02:08:28;;;;;;;18.60;14.10;;;;;;;1.75;74.42;99835.06;5119468;28;20468;-76
2021/01/30 02:10:54;;;;;;;18.23;13.87;;;;;;;2.09;74.33;99823.22;5119774;28;20520;-75
2021/01/30 02:13:29;;;;;;;19.00;13.73;;;;;;;1.85;73.99;99835.38;5119379;28;20492;-72
2021/01/30 02:16:23;;;;;;;17.90;13.63;;;;;;;1.60;75.26;99832.88;5118578;28;20340;-72
2021/01/30 02:19:19;;;;;;;17.70;14.10;;;;;;;2.09;73.60;99838.63;5118585;28;20449;-73
2021/01/30 02:22:27;;;;;;;18.87;13.50;;;;;;;2.68;71.80;99826.56;5118503;28;20432;-70
2021/01/30 02:25:16;;;;;;;17.63;13.20;;;;;;;2.08;73.45;99831.75;5119246;28;20451;-73
2021/01/30 02:27:50;;;;;;;18.17;13.30;;;;;;;2.49;71.62;99838.06;5119131;28;20491;-73
2021/01/30 02:30:47;;;;;;;19.03;13.67;;;;;;;2.96;71.25;99828.97;5119111;28;20405;-73
2021/01/30 02:33:51;;;;;;;17.60;12.93;;;;;;;2.99;69.33;99837.66;5115156;28;20405;-74
2021/01/30 02:36:26;;;;;;;17.73;14.10;;;;;;;2.79;70.39;99838.88;5086396;28;20410;-72
2021/01/30 02:39:00;;;;;;;15.00;12.80;;;;;;;2.96;70.23;99845.28;5098060;28;20509;-72
2021/01/30 02:41:34;;;;;;;16.40;12.50;;;;;;;2.83;70.41;99848.41;5097916;28;20446;-72
2021/01/30 02:44:02;;;;;;;16.50;12.63;;;;;;;2.61;70.54;99852.09;5098018;28;20476;-73
2021/01/30 02:46:34;;;;;;;14.63;12.17;;;;;;;2.88;70.71;99854.53;5098149;28;20414;-74
2021/01/30 02:49:05;;;;;;;15.80;11.90;;;;;;;2.93;70.77;99865.81;5098748;28;20461;-74
2021/01/30 02:51:35;;;;;;;16.97;14.00;;;;;;;2.94;69.30;99867.56;5098373;28;20721;-74
2021/01/30 02:54:02;;;;;;;18.43;13.33;;;;;;;2.52;72.44;99866.44;5106762;28;20431;-74
2021/01/30 02:56:28;;;;;;;16.40;13.20;;;;;;;2.63;71.23;99879.59;5119060;28;20499;-73
2021/01/30 02:59:14;;;;;;;15.63;12.77;;;;;;;2.08;72.11;99884.00;5118740;28;20449;-73
2021/01/30 03:01:40;;;;;;;17.53;13.50;;;;;;;2.33;71.24;99885.63;5117874;28;20178;-73
2021/01/30 03:04:11;;;;;;;18.93;14.27;;;;;;;2.60;71.71;99887.25;5118684;28;20417;-74
2021/01/30 03:06:55;;;;;;;19.87;14.80;;;;;;;2.17;71.87;99891.16;5117968;28;20218;-71
2021/01/30 03:09:26;;;;;;;33.60;21.53;;;;;;;2.77;71.50;99889.41;5117792;28;20460;-72
2021/01/30 03:12:05;;;;;;;17.20;13.37;;;;;;;2.91;69.55;99882.94;5118502;28;20713;-72
2021/01/30 03:14:31;;;;;;;15.67;12.00;;;;;;;2.69;69.30;99879.78;5118288;28;20457;-73
2021/01/30 03:16:59;;;;;;;16.60;12.97;;;;;;;2.34;71.51;99895.09;5117843;28;20488;-72
2021/01/30 03:19:29;;;;;;;17.10;13.03;;;;;;;2.04;72.91;99896.75;5117791;28;20420;-74
2021/01/30 03:21:58;;;;;;;19.83;13.10;;;;;;;2.08;71.39;99903.72;5117596;28;20439;-75
2021/01/30 03:24:26;;;;;;;15.23;12.10;;;;;;;2.30;70.82;99900.09;5117626;28;20440;-74
2021/01/30 03:26:51;;;;;;;23.17;12.97;;;;;;;2.26;71.25;99916.25;5118551;28;20466;-74
2021/01/30 03:29:18;;;;;;;18.37;14.33;;;;;;;2.44;70.33;99915.94;5117994;28;20465;-72
2021/01/30 03:31:44;;;;;;;16.80;12.80;;;;;;;1.80;72.13;99918.28;5118297;28;20172;-73
2021/01/30 03:34:11;;;;;;;18.10;13.57;;;;;;;2.54;70.75;99920.50;5118282;28;20467;-71
2021/01/30 03:36:37;;;;;;;15.80;13.10;;;;;;;2.20;71.07;99927.22;5118951;28;20482;-73
2021/01/30 03:39:05;;;;;;;19.37;14.50;;;;;;;2.48;70.62;99930.63;5118335;28;20409;-72
2021/01/30 03:41:31;;;;;;;19.27;14.20;;;;;;;2.34;70.43;99922.50;5118178;28;20432;-72
2021/01/30 03:43:56;;;;;;;18.50;14.63;;;;;;;1.86;70.96;99933.91;5118763;28;20799;-73
2021/01/30 03:46:21;;;;;;;19.30;13.60;;;;;;;2.53;69.75;99929.09;5118298;28;20168;-70
2021/01/30 03:48:46;;;;;;;18.60;14.27;;;;;;;2.25;69.69;99938.53;5119342;28;20211;-74
2021/01/30 03:51:12;;;;;;;18.17;13.90;;;;;;;2.69;68.39;99928.69;5122546;28;20471;-75
2021/01/30 03:53:37;;;;;;;18.50;14.30;;;;;;;2.79;69.35;99936.66;5122048;28;20258;-73
2021/01/30 03:56:03;;;;;;;18.30;14.07;;;;;;;2.22;69.40;99945.28;5122288;28;20182;-73
2021/01/30 03:58:29;;;;;;;21.63;14.30;;;;;;;2.15;69.05;99946.78;5122266;28;20521;-73
2021/01/30 04:00:54;;;;;;;19.63;14.10;;;;;;;2.57;69.48;99941.19;5121936;28;20428;-73
2021/01/30 04:03:19;;;;;;;18.97;14.47;;;;;;;2.88;68.19;99942.03;5122136;28;20171;-74
2021/01/30 04:05:44;;;;;;;18.37;14.37;;;;;;;2.63;68.20;99943.94;5122576;27;20171;-73
2021/01/30 04:08:10;;;;;;;18.77;14.40;;;;;;;2.97;67.31;99942.31;5122147;28;20552;-74
2021/01/30 04:10:36;;;;;;;21.07;14.70;;;;;;;3.01;66.98;99946.72;5121796;28;20203;-74
2021/01/30 04:13:07;;;;;;;21.77;15.90;;;;;;;3.09;66.48;99946.94;5122418;28;20514;-75
2021/01/30 04:15:35;;;;;;;20.10;14.67;;;;;;;2.85;67.82;99952.28;5121819;28;20544;-74
2021/01/30 04:18:01;;;;;;;21.37;16.03;;;;;;;2.74;66.99;99958.81;5121724;28;20429;-71
2021/01/30 04:20:26;;;;;;;20.13;15.50;;;;;;;2.66;67.49;99962.03;5121999;27;20815;-71
2021/01/30 04:22:52;;;;;;;22.00;15.60;;;;;;;2.41;68.39;99967.28;5121783;28;20413;-71
2021/01/30 04:25:20;;;;;;;24.03;16.60;;;;;;;2.11;69.18;99971.56;5121776;27;20175;-71
2021/01/30 04:27:46;;;;;;;23.97;16.47;;;;;;;2.61;67.87;99973.91;5122106;28;20187;-72
2021/01/30 04:30:14;;;;;;;23.50;17.07;;;;;;;2.50;68.10;99975.28;5121627;28;20428;-71
2021/01/30 04:32:39;;;;;;;24.73;16.70;;;;;;;2.43;68.15;99968.22;5121595;28;20168;-71
2021/01/30 04:35:06;;;;;;;22.23;16.27;;;;;;;1.85;70.90;99974.16;5122520;28;20424;-71
2021/01/30 04:37:31;;;;;;;24.27;17.37;;;;;;;1.90;70.50;99973.44;5121497;28;20533;-70
2021/01/30 04:39:57;;;;;;;26.47;17.30;;;;;;;2.19;69.69;99975.22;5121254;28;20435;-71
2021/01/30 04:42:36;;;;;;;29.20;19.00;;;;;;;1.82;71.03;99978.31;5122117;28;20178;-72
2021/01/30 04:45:05;;;;;;;28.70;19.20;;;;;;;2.08;70.58;99978.28;5120768;28;20179;-71
2021/01/30 04:47:47;;;;;;;25.40;17.70;;;;;;;2.21;69.61;99977.84;5120845;28;20457;-71
2021/01/30 04:50:36;;;;;;;27.07;18.10;;;;;;;2.04;70.31;99979.88;5120670;28;20425;-70
2021/01/30 04:53:06;;;;;;;26.90;18.73;;;;;;;2.07;70.09;99973.97;5120567;28;20417;-71
2021/01/30 04:55:41;;;;;;;26.73;18.33;;;;;;;2.47;68.87;99975.19;5120483;28;20546;-71
2021/01/30 04:58:33;;;;;;;26.93;17.60;;;;;;;2.04;70.56;99982.44;5120374;28;20413;-71
2021/01/30 05:01:07;;;;;;;30.67;19.17;;;;;;;2.50;68.92;99980.41;5104589;27;20840;-71
2021/01/30 05:03:54;;;;;;;24.63;17.30;;;;;;;2.70;67.89;99983.59;5120971;28;20425;-70
2021/01/30 05:06:40;;;;;;;25.83;17.10;;;;;;;2.13;69.72;99979.31;5120887;28;20690;-71
2021/01/30 05:09:11;;;;;;;26.53;17.70;;;;;;;2.81;67.22;99981.31;5120263;28;20772;-72
2021/01/30 05:11:38;;;;;;;24.70;17.70;;;;;;;2.68;67.92;99988.69;5120017;28;20413;-71
2021/01/30 05:14:15;;;;;;;25.97;18.40;;;;;;;2.37;69.12;99992.06;5119888;28;20494;-71
2021/01/30 05:16:49;;;;;;;27.90;18.60;;;;;;;2.31;68.71;99986.72;5119881;27;20428;-71
2021/01/30 05:19:15;;;;;;;25.57;17.60;;;;;;;2.31;69.46;99985.03;5119985;28;20424;-70
2021/01/30 05:21:47;;;;;;;26.43;17.53;;;;;;;2.20;69.99;99986.38;5119785;28;20424;-71
2021/01/30 05:24:14;;;;;;;25.13;18.00;;;;;;;2.62;67.85;99985.94;5119800;28;20245;-71
2021/01/30 05:26:50;;;;;;;24.97;17.50;;;;;;;2.38;68.39;99992.91;5120333;28;20394;-71
2021/01/30 05:29:29;;;;;;;24.87;17.47;;;;;;;1.78;70.18;99997.91;5120473;28;20893;-71
2021/01/30 05:32:06;;;;;;;26.43;17.57;;;;;;;1.03;72.85;100003.00;5119684;28;20417;-70
2021/01/30 05:34:50;;;;;;;22.40;16.50;;;;;;;1.73;71.46;99994.28;5119737;28;20505;-72
2021/01/30 05:37:20;;;;;;;30.13;18.47;;;;;;;1.09;73.18;99998.09;5119618;28;20429;-71
2021/01/30 05:40:08;;;;;;;26.97;16.50;;;;;;;1.77;71.01;99995.28;5119273;28;20417;-71
2021/01/30 05:42:38;;;;;;;26.37;18.00;;;;;;;2.06;69.44;100001.38;5120269;28;20474;-71
2021/01/30 05:45:13;;;;;;;32.00;17.43;;;;;;;2.15;69.54;99990.50;5120107;28;20413;-72
2021/01/30 05:47:39;;;;;;;24.87;16.43;;;;;;;1.77;70.33;100003.00;5120001;28;20474;-71
2021/01/30 05:50:17;;;;;;;23.37;16.50;;;;;;;1.88;70.42;100006.81;5119202;28;20417;-71
2021/01/30 05:52:42;;;;;;;22.43;15.37;;;;;;;1.63;71.04;100013.69;5119359;28;20441;-69
2021/01/30 05:55:40;;;;;;;23.40;16.87;;;;;;;1.32;71.74;100022.03;5119903;28;20431;-71
2021/01/30 05:58:09;;;;;;;26.80;17.23;;;;;;;1.67;70.39;100023.22;5096915;28;20270;-72
2021/01/30 06:00:35;;;;;;;24.70;16.80;;;;;;;2.09;69.12;100022.03;5119675;28;20544;-71
2021/01/30 06:03:19;;;;;;;24.47;16.00;;;;;;;1.87;68.85;100035.91;5119136;28;20436;-71
2021/01/30 06:05:46;;;;;;;22.60;15.87;;;;;;;1.69;69.23;100033.56;5119750;28;20186;-71
2021/01/30 06:08:17;;;;;;;23.83;15.03;;;;;;;1.63;69.70;100041.94;5119678;28;20461;-71
2021/01/30 06:10:44;;;;;;;22.47;16.03;;;;;;;2.15;68.18;100039.34;5119497;28;20496;-71
2021/01/30 06:13:16;;;;;;;20.70;14.77;;;;;;;1.76;68.61;100044.91;5118658;28;20717;-71
2021/01/30 06:15:48;;;;;;;22.10;15.90;;;;;;;1.62;69.86;100042.75;5118753;28;20487;-71
2021/01/30 06:18:42;;;;;;;24.17;16.77;;;;;;;1.41;70.78;100048.03;5108761;28;20444;-71
2021/01/30 06:21:19;;;;;;;22.10;14.67;;;;;;;1.89;68.37;100052.22;5105164;28;20433;-71
2021/01/30 06:24:09;;;;;;;24.43;16.50;;;;;;;1.71;68.18;100051.63;5098491;28;20432;-71
2021/01/30 06:26:39;;;;;;;23.40;14.90;;;;;;;1.55;69.14;100051.06;5099018;28;20450;-71
2021/01/30 06:29:06;;;;;;;21.73;15.33;;;;;;;1.85;68.28;100047.81;5098320;28;20511;-71
2021/01/30 06:31:39;;;;;;;18.90;14.07;;;;;;;1.63;68.74;100046.22;5114921;28;20793;-71
2021/01/30 06:34:23;;;;;;;21.53;14.47;;;;;;;1.30;69.21;100054.47;5098305;28;20420;-71
2021/01/30 06:36:49;;;;;;;20.37;13.37;;;;;;;1.46;69.45;100067.06;5098907;28;20395;-71
2021/01/30 06:39:39;;;;;;;18.57;13.27;;;;;;;0.87;70.86;100074.31;5098596;28;20810;-71
2021/01/30 06:42:11;;;;;;;19.07;13.80;;;;;;;1.13;70.00;100064.13;5099285;28;20696;-71
2021/01/30 06:44:37;;;;;;;20.13;15.00;;;;;;;1.11;69.55;100065.75;5116360;28;20839;-71
2021/01/30 06:47:20;;;;;;;19.90;14.50;;;;;;;1.16;69.37;100077.06;5099762;28;20421;-71
2021/01/30 06:49:55;;;;;;;17.83;13.20;;;;;;;0.93;69.74;100082.22;5115546;28;20834;-71
2021/01/30 06:52:23;;;;;;;18.17;12.67;;;;;;;1.08;69.72;100079.34;5099381;28;20455;-71
2021/01/30 06:55:03;;;;;;;19.27;12.93;;;;;;;1.17;68.81;100081.41;5098735;28;20412;-71
2021/01/30 06:57:28;;;;;;;18.83;12.83;;;;;;;1.25;68.29;100087.69;5098627;28;20417;-71
2021/01/30 07:00:00;;;;;;;21.47;14.53;;;;;;;1.30;67.65;100091.31;5098284;28;20419;-72
2021/01/30 07:02:38;;;;;;;19.57;13.10;;;;;;;1.20;67.99;100088.34;5098164;28;21303;-70
2021/01/30 07:05:09;;;;;;;18.30;13.63;;;;;;;1.40;67.13;100083.94;5115296;28;20825;-71
2021/01/30 07:07:54;;;;;;;20.00;13.50;;;;;;;0.99;69.25;100100.44;5098633;28;20418;-71
2021/01/30 07:10:24;;;;;;;21.43;14.10;;;;;;;0.75;69.39;100092.66;5097539;28;20418;-70
2021/01/30 07:13:03;;;;;;;20.50;13.90;;;;;;;0.96;68.85;100096.88;5097615;28;20418;-72
2021/01/30 07:15:34;;;;;;;21.40;13.20;;;;;;;1.20;68.06;100099.47;5097525;28;20453;-72
2021/01/30 07:18:18;;;;;;;18.67;12.90;;;;;;;1.16;67.74;100108.78;5114354;28;20500;-70
2021/01/30 07:20:56;;;;;;;18.50;12.47;;;;;;;1.11;67.85;100115.44;5098162;28;20410;-70
2021/01/30 07:23:41;;;;;;;21.27;14.20;;;;;;;1.03;68.13;100108.22;5097988;28;20438;-71
2021/01/30 07:26:22;;;;;;;20.10;13.20;;;;;;;1.04;67.93;100110.00;5118280;28;20406;-70
2021/01/30 07:28:56;;;;;;;18.83;13.43;;;;;;;0.90;68.38;100122.31;5118671;28;20466;-70
2021/01/30 07:31:38;;;;;;;19.73;13.37;;;;;;;1.47;66.35;100124.44;5102255;28;20820;-71
2021/01/30 07:34:09;;;;;;;21.07;14.00;;;;;;;1.18;66.67;100119.97;5102128;28;20436;-70
2021/01/30 07:36:47;;;;;;;18.77;14.23;;;;;;;0.87;68.25;100115.38;5102267;28;20421;-71
2021/01/30 07:39:28;;;;;;;17.90;12.60;;;;;;;0.86;67.74;100121.31;5101423;28;20493;-71
2021/01/30 07:41:57;;;;;;;16.90;12.57;;;;;;;1.28;66.49;100117.75;5101948;28;20437;-70
2021/01/30 07:44:49;;;;;;;17.73;12.20;;;;;;;1.27;66.27;100111.75;5101316;28;20500;-70
2021/01/30 07:47:18;;;;;;;17.87;13.30;;;;;;;0.99;67.09;100110.69;5101359;28;20442;-70
2021/01/30 07:49:49;;;;;;;19.63;13.80;;;;;;;0.70;69.15;100108.69;5101178;28;20438;-71
2021/01/30 07:52:21;;;;;;;20.67;14.00;;;;;;;1.29;66.55;100115.22;5101826;28;20422;-70
2021/01/30 07:54:51;;;;;;;17.60;12.67;;;;;;;1.29;66.39;100106.66;5102028;28;20842;-70
2021/01/30 07:57:35;;;;;;;17.43;12.30;;;;;;;1.81;65.12;100107.63;5101897;28;20831;-71
2021/01/30 08:00:22;;;;;;;17.50;12.20;;;;;;;1.80;63.91;100111.03;5101669;28;20459;-70
2021/01/30 08:03:06;;;;;;;15.53;11.90;;;;;;;1.85;64.07;100110.38;5101008;28;20422;-70
2021/01/30 08:05:45;;;;;;;17.93;12.93;;;;;;;2.01;64.24;100118.59;5101683;28;20410;-71
2021/01/30 08:08:35;;;;;;;16.67;11.40;;;;;;;2.06;63.68;100114.50;5101507;28;20457;-69
2021/01/30 08:11:23;;;;;;;16.50;12.67;;;;;;;1.91;64.82;100116.53;5101449;28;20498;-70
2021/01/30 08:14:12;;;;;;;13.77;11.10;;;;;;;2.69;61.27;100106.25;5100880;28;20406;-71
2021/01/30 08:16:48;;;;;;;15.27;11.80;;;;;;;4.18;56.79;100110.41;5101359;28;20839;-71
2021/01/30 08:19:19;;;;;;;15.47;12.10;;;;;;;5.30;52.82;100101.78;5100727;28;20512;-71
2021/01/30 08:21:56;;;;;;;12.03;10.73;;;;;;;5.85;50.26;100099.41;5100497;28;20516;-71
2021/01/30 08:24:38;;;;;;;13.53;11.20;;;;;;;6.09;49.13;100098.16;5101077;28;20433;-72
2021/01/30 08:27:11;;;;;;;11.10;9.90;;;;;;;7.00;46.89;100096.09;5100523;28;20505;-71
2021/01/30 08:29:42;;;;;;;11.67;10.47;;;;;;;6.35;48.78;100103.75;5117459;28;20472;-71
2021/01/30 08:32:22;;;;;;;12.60;11.00;;;;;;;5.12;51.72;100109.16;5100265;28;20655;-71
2021/01/30 08:34:48;;;;;;;13.90;12.40;;;;;;;3.74;56.63;100113.56;5100465;28;20418;-72
2021/01/30 08:37:13;;;;;;;13.20;11.90;;;;;;;5.59;50.69;100110.97;5101164;28;20426;-73
2021/01/30 08:40:05;;;;;;;14.33;11.73;;;;;;;5.95;50.24;100115.09;5100998;28;20172;-72
2021/01/30 08:42:33;;;;;;;12.77;11.43;;;;;;;7.22;47.83;100112.81;5100902;28;20172;-72
2021/01/30 08:45:08;;;;;;;13.03;11.73;;;;;;;7.08;46.82;100117.81;5100802;28;20437;-73
2021/01/30 08:48:14;;;;;;;15.03;11.47;;;;;;;6.89;46.14;100122.72;5099885;28;20527;-72
2021/01/30 08:50:50;;;;;;;12.77;11.33;;;;;;;5.77;50.36;100137.19;5100885;28;20409;-73
2021/01/30 08:53:18;;;;;;;12.30;11.10;;;;;;;4.71;53.52;100144.41;5117046;28;20566;-72
2021/01/30 08:55:44;;;;;;;13.00;11.40;;;;;;;5.24;51.92;100135.25;5116863;28;20430;-72
2021/01/30 08:58:37;;;;;;;14.40;12.83;;;;;;;5.49;50.56;100133.19;5100553;28;20406;-70
2021/01/30 09:01:08;;;;;;;12.73;11.43;;;;;;;4.83;52.20;100135.19;5100343;28;20440;-70
2021/01/30 09:03:48;;;;;;;14.20;12.70;;;;;;;4.62;53.11;100143.31;5100434;28;20410;-71
2021/01/30 09:06:39;;;;;;;12.67;11.37;;;;;;;5.37;51.59;100138.97;5099869;28;20406;-71
2021/01/30 09:09:04;;;;;;;12.43;11.17;;;;;;;4.79;52.65;100141.13;5100322;28;20458;-70
2021/01/30 09:11:41;;;;;;;12.37;11.07;;;;;;;5.21;51.64;100130.03;5100230;28;20510;-72
2021/01/30 09:14:33;;;;;;;13.30;11.90;;;;;;;6.20;49.51;100126.81;5100066;28;20439;-72
2021/01/30 09:16:58;;;;;;;11.00;9.90;;;;;;;8.29;45.92;100114.84;5100335;28;20445;-72
2021/01/30 09:19:35;;;;;;;10.33;9.23;;;;;;;8.77;43.19;100110.91;5100235;28;20442;-72
2021/01/30 09:22:39;;;;;;;10.50;9.60;;;;;;;9.70;40.37;100108.78;5099206;28;20171;-73
2021/01/30 09:25:37;;;;;;;11.20;10.10;;;;;;;8.61;41.63;100116.88;5099110;28;20434;-72
2021/01/30 09:28:13;;;;;;;10.90;9.90;;;;;;;10.31;39.23;100117.56;5086278;28;20897;-72
2021/01/30 09:30:50;;;;;;;13.83;12.40;;;;;;;9.94;40.11;100121.00;5116039;28;20385;-72
2021/01/30 09:33:21;;;;;;;11.73;10.63;;;;;;;10.52;37.95;100114.13;5099212;28;20385;-74
2021/01/30 09:35:47;;;;;;;14.60;13.07;;;;;;;10.49;38.23;100113.28;5116197;28;20583;-72
2021/01/30 09:38:28;;;;;;;10.73;9.73;;;;;;;9.39;39.46;100126.88;5099903;28;20418;-72
2021/01/30 09:41:28;;;;;;;11.17;10.07;;;;;;;9.58;40.08;100133.03;5115920;28;20434;-72
2021/01/30 09:44:17;;;;;;;11.30;10.30;;;;;;;9.70;39.12;100121.78;5099643;28;20639;-73
2021/01/30 09:46:44;;;;;;;11.33;10.33;;;;;;;8.99;40.55;100126.66;5097938;28;20409;-72
2021/01/30 09:49:19;;;;;;;11.33;10.10;;;;;;;9.42;39.50;100126.03;5098851;28;20844;-73
2021/01/30 09:51:45;;;;;;;11.43;10.23;;;;;;;10.55;37.62;100119.34;5098647;28;20747;-73
2021/01/30 09:54:15;;;;;;;11.57;10.30;;;;;;;9.45;39.00;100123.44;5098636;28;20408;-73
2021/01/30 09:56:41;;;;;;;11.30;10.30;;;;;;;10.75;37.65;100119.31;5098507;28;20176;-72
2021/01/30 09:59:07;;;;;;;11.53;10.43;;;;;;;8.95;39.10;100129.25;5100913;28;20426;-75
2021/01/30 10:01:38;;;;;;;11.40;10.40;;;;;;;9.20;39.43;100125.03;5119626;28;20206;-74
2021/01/30 10:04:21;;;;;;;11.47;10.37;;;;;;;9.19;39.57;100126.78;5119648;28;20664;-75
2021/01/30 10:06:47;;;;;;;11.37;9.63;;;;;;;9.51;38.54;100130.38;5119668;28;20395;-75
2021/01/30 10:09:17;;;;;;;11.30;9.90;;;;;;;9.00;39.99;100133.59;5119204;28;20560;-72
2021/01/30 10:11:44;;;;;;;10.27;9.30;;;;;;;8.89;39.17;100143.94;5119424;28;20507;-73
2021/01/30 10:14:15;;;;;;;10.47;9.57;;;;;;;9.84;37.30;100136.59;5118848;28;20472;-72
2021/01/30 10:16:42;;;;;;;10.93;9.70;;;;;;;10.07;38.32;100140.09;5118672;28;20504;-73
2021/01/30 10:19:23;;;;;;;10.40;9.50;;;;;;;9.43;39.77;100159.84;5118587;28;20806;-73
2021/01/30 10:21:48;;;;;;;10.20;9.20;;;;;;;9.06;38.44;100156.16;5118545;28;20416;-71
2021/01/30 10:24:19;;;;;;;10.13;9.13;;;;;;;9.67;38.29;100154.75;5118725;28;20396;-72
2021/01/30 10:26:45;;;;;;;9.03;8.27;;;;;;;9.93;36.44;100155.69;5119611;28;20160;-72
2021/01/30 10:29:13;;;;;;;10.30;9.40;;;;;;;9.71;37.69;100156.50;5118386;28;20431;-72
2021/01/30 10:31:41;;;;;;;10.50;9.60;;;;;;;9.94;37.09;100159.16;5119513;28;20410;-72
2021/01/30 10:34:16;;;;;;;9.50;8.60;;;;;;;10.36;36.64;100160.13;5118340;28;20525;-74
2021/01/30 10:36:49;;;;;;;10.57;9.60;;;;;;;9.64;38.27;100158.19;5119060;28;20621;-72
2021/01/30 10:39:14;;;;;;;10.23;9.33;;;;;;;10.01;37.59;100160.94;5118446;28;20388;-71
2021/01/30 10:41:40;;;;;;;10.20;9.23;;;;;;;8.71;39.58;100155.06;5118276;28;20425;-73
2021/01/30 10:44:06;;;;;;;10.60;9.50;;;;;;;10.07;37.15;100158.34;5118609;28;20171;-73
2021/01/30 10:46:43;;;;;;;9.80;8.90;;;;;;;9.88;36.76;100151.34;5118218;28;20171;-73
2021/01/30 10:49:27;;;;;;;10.70;9.57;;;;;;;9.95;36.72;100151.34;5117985;28;20206;-74
2021/01/30 10:52:13;;;;;;;9.70;8.70;;;;;;;9.39;38.31;100160.69;5118669;28;20453;-75
2021/01/30 10:54:41;;;;;;;8.83;8.03;;;;;;;9.47;36.96;100159.84;5119253;28;20372;-74
2021/01/30 10:57:10;;;;;;;9.60;8.80;;;;;;;9.66;37.03;100159.09;5118634;28;20655;-74
2021/01/30 11:00:02;;;;;;;9.23;8.43;;;;;;;9.80;38.61;100155.66;5118658;28;20757;-75
2021/01/30 11:02:41;;;;;;;9.77;8.97;;;;;;;10.04;39.29;100160.94;5118622;28;20737;-71
2021/01/30 11:05:19;;;;;;;9.20;8.40;;;;;;;10.02;37.68;100148.78;5118644;28;20471;-71
2021/01/30 11:07:46;;;;;;;10.37;9.47;;;;;;;10.35;37.43;100153.22;5118297;28;20440;-72
2021/01/30 11:10:23;;;;;;;9.93;9.03;;;;;;;9.46;38.15;100148.59;5117587;28;20871;-71
2021/01/30 11:12:50;;;;;;;9.83;9.00;;;;;;;9.27;38.50;100142.44;5118430;28;20372;-70
2021/01/30 11:15:21;;;;;;;10.33;9.43;;;;;;;10.07;36.50;100144.44;5118159;28;20421;-72
2021/01/30 11:17:47;;;;;;;10.40;9.43;;;;;;;8.99;38.58;100147.44;5117622;28;20397;-72
2021/01/30 11:20:13;;;;;;;10.30;9.30;;;;;;;9.43;38.43;100143.34;5118372;28;20391;-73
2021/01/30 11:22:49;;;;;;;9.90;9.03;;;;;;;9.97;37.36;100138.34;5118854;28;20156;-72
2021/01/30 11:25:14;;;;;;;10.47;9.47;;;;;;;9.38;38.86;100150.28;5117745;28;20817;-72
2021/01/30 11:27:45;;;;;;;10.30;9.30;;;;;;;9.18;38.22;100142.38;5118368;28;20410;-71
2021/01/30 11:30:28;;;;;;;9.03;8.23;;;;;;;9.06;39.02;100143.16;5118401;28;20247;-70
2021/01/30 11:33:03;;;;;;;9.73;8.83;;;;;;;9.25;38.94;100133.72;5118282;28;20691;-73
2021/01/30 11:35:32;;;;;;;10.20;8.97;;;;;;;9.00;38.73;100131.00;5117646;28;20390;-78
2021/01/30 11:38:00;;;;;;;9.10;8.20;;;;;;;8.35;40.07;100132.19;5117486;28;20420;-77
2021/01/30 11:40:26;;;;;;;10.00;9.10;;;;;;;8.97;39.61;100132.69;5117494;28;20423;-72
2021/01/30 11:42:51;;;;;;;9.40;8.50;;;;;;;8.96;38.70;100137.03;5118044;28;20437;-75
2021/01/30 11:45:16;;;;;;;9.00;8.20;;;;;;;8.54;40.14;100136.72;5118639;28;20471;-75
2021/01/30 11:47:42;;;;;;;11.40;8.67;;;;;;;8.45;41.29;100144.44;5118075;28;20179;-73